createdAt,value
2017-09-24T00:00:03.937Z,28.08
2017-09-24T00:02:32.241Z,28.42
2017-09-24T00:04:59.764Z,31.42
2017-09-24T00:07:28.111Z,26.45
2017-09-24T00:09:55.670Z,28.62
2017-09-24T00:12:23.237Z,30.12
2017-09-24T00:14:50.861Z,29.47
2017-09-24T00:17:18.439Z,27.42
2017-09-24T00:19:46.049Z,28.60
2017-09-24T00:22:13.579Z,34.00
2017-09-24T00:24:41.242Z,29.40
2017-09-24T00:27:08.798Z,27.13
2017-09-24T00:29:36.399Z,30.15
2017-09-24T00:32:04.001Z,35.20
2017-09-24T00:34:31.560Z,35.22
2017-09-24T00:37:02.744Z,30.30
2017-09-24T00:39:30.289Z,33.87
2017-09-24T00:41:57.862Z,34.88
2017-09-24T00:44:25.417Z,31.02
2017-09-24T00:46:53.002Z,30.75
2017-09-24T00:49:21.367Z,33.65
2017-09-24T00:51:48.972Z,26.25
2017-09-24T00:54:16.619Z,29.35
2017-09-24T00:56:44.969Z,33.33
2017-09-24T00:59:12.530Z,33.20
2017-09-24T01:01:40.065Z,31.67
2017-09-24T01:04:07.623Z,31.98
2017-09-24T01:06:35.163Z,35.47
2017-09-24T01:09:02.781Z,28.30
2017-09-24T01:11:30.327Z,33.33
2017-09-24T01:13:57.884Z,31.25
2017-09-24T01:16:25.417Z,29.67
2017-09-24T01:18:52.960Z,35.20
2017-09-24T01:21:20.534Z,35.05
2017-09-24T01:23:48.050Z,32.13
2017-09-24T01:26:15.579Z,34.53
2017-09-24T01:28:43.238Z,37.72
2017-09-24T01:31:10.789Z,38.78
2017-09-24T01:33:38.305Z,43.55
2017-09-24T01:36:06.609Z,38.90
2017-09-24T01:38:34.137Z,39.45
2017-09-24T01:41:02.436Z,42.33
2017-09-24T01:43:29.982Z,45.30
2017-09-24T01:45:58.268Z,39.90
2017-09-24T01:48:25.809Z,41.03
2017-09-24T01:50:53.331Z,45.78
2017-09-24T01:53:20.895Z,43.33
2017-09-24T01:55:48.413Z,48.87
2017-09-24T01:58:16.811Z,51.28
2017-09-24T02:00:44.360Z,45.95
2017-09-24T02:03:11.892Z,52.70
2017-09-24T02:05:40.239Z,52.03
2017-09-24T02:08:07.762Z,53.60
2017-09-24T02:10:35.335Z,41.05
2017-09-24T02:13:03.886Z,42.92
2017-09-24T02:15:32.221Z,49.20
2017-09-24T02:17:59.752Z,50.83
2017-09-24T02:20:27.296Z,46.90
2017-09-24T02:22:54.857Z,53.67
2017-09-24T02:25:22.402Z,48.85
2017-09-24T02:27:50.707Z,48.13
2017-09-24T02:30:18.242Z,45.88
2017-09-24T02:32:46.637Z,51.67
2017-09-24T02:35:14.168Z,49.47
2017-09-24T02:37:41.739Z,44.22
2017-09-24T02:40:10.044Z,50.22
2017-09-24T02:42:37.575Z,44.72
2017-09-24T02:45:05.901Z,44.40
2017-09-24T02:47:33.463Z,44.47
2017-09-24T02:50:01.098Z,45.58
2017-09-24T02:52:28.651Z,44.63
2017-09-24T02:54:56.237Z,45.67
2017-09-24T02:57:23.819Z,44.58
2017-09-24T02:59:51.420Z,42.80
2017-09-24T03:02:19.756Z,44.30
2017-09-24T03:04:47.315Z,44.15
2017-09-24T03:07:14.873Z,44.63
2017-09-24T03:09:42.413Z,42.65
2017-09-24T03:12:09.979Z,42.83
2017-09-24T03:14:37.506Z,48.17
2017-09-24T03:17:05.827Z,50.88
2017-09-24T03:19:33.344Z,49.50
2017-09-24T03:22:01.670Z,47.90
2017-09-24T03:24:29.197Z,53.25
2017-09-24T03:26:56.720Z,50.95
2017-09-24T03:29:24.244Z,53.45
2017-09-24T03:31:51.765Z,57.55
2017-09-24T03:34:20.052Z,49.03
2017-09-24T03:36:47.560Z,58.22
2017-09-24T03:39:15.084Z,52.88
2017-09-24T03:41:42.591Z,50.97
2017-09-24T03:44:10.133Z,59.25
2017-09-24T03:46:37.653Z,50.00
2017-09-24T03:49:05.190Z,51.45
2017-09-24T03:51:32.728Z,52.90
2017-09-24T03:54:00.233Z,55.45
2017-09-24T03:56:27.764Z,61.55
2017-09-24T03:58:56.448Z,52.80
2017-09-24T04:01:23.975Z,62.30
2017-09-24T04:03:51.480Z,54.05
2017-09-24T04:06:19.779Z,56.50
2017-09-24T04:08:47.296Z,57.78
2017-09-24T04:11:14.800Z,58.63
2017-09-24T04:13:42.544Z,53.20
2017-09-24T04:16:10.810Z,54.85
2017-09-24T04:18:39.105Z,58.03
2017-09-24T04:21:07.380Z,56.75
2017-09-24T04:23:35.676Z,54.67
2017-09-24T04:26:03.203Z,59.92
2017-09-24T04:28:31.548Z,54.83
2017-09-24T04:30:59.125Z,59.05
2017-09-24T04:33:26.661Z,56.53
2017-09-24T04:35:54.204Z,58.58
2017-09-24T04:38:21.741Z,64.65
2017-09-24T04:40:50.036Z,64.85
2017-09-24T04:43:17.536Z,65.35
2017-09-24T04:45:45.058Z,54.83
2017-09-24T04:48:12.568Z,58.35
2017-09-24T04:50:40.115Z,55.75
2017-09-24T04:53:07.629Z,59.67
2017-09-24T04:55:35.200Z,65.00
2017-09-24T04:58:02.756Z,68.05
2017-09-24T05:00:30.328Z,61.80
2017-09-24T05:02:57.976Z,61.30
2017-09-24T05:05:25.528Z,55.38
2017-09-24T05:07:54.453Z,62.75
2017-09-24T05:10:22.019Z,77.12
2017-09-24T05:12:49.590Z,77.87
2017-09-24T05:15:17.146Z,71.03
2017-09-24T05:17:44.655Z,73.05
2017-09-24T05:20:12.966Z,65.10
2017-09-24T05:22:40.500Z,69.75
2017-09-24T05:25:08.036Z,68.30
2017-09-24T05:27:36.323Z,74.93
2017-09-24T05:30:04.630Z,65.93
2017-09-24T05:32:32.187Z,63.45
2017-09-24T05:34:59.700Z,68.53
2017-09-24T05:37:27.242Z,55.97
2017-09-24T05:39:54.766Z,59.08
2017-09-24T05:42:22.301Z,52.45
2017-09-24T05:44:50.580Z,40.28
2017-09-24T05:47:18.882Z,48.08
2017-09-24T05:49:46.412Z,47.40
2017-09-24T05:52:13.933Z,42.47
2017-09-24T05:54:41.483Z,42.83
2017-09-24T05:57:09.000Z,38.78
2017-09-24T05:59:37.306Z,42.47
2017-09-24T06:02:04.862Z,42.15
2017-09-24T06:04:32.401Z,41.97
2017-09-24T06:07:00.685Z,36.58
2017-09-24T06:09:28.236Z,45.10
2017-09-24T06:11:56.524Z,43.60
2017-09-24T06:14:24.814Z,46.03
2017-09-24T06:16:52.354Z,51.65
2017-09-24T06:19:20.717Z,60.78
2017-09-24T06:21:49.061Z,62.45
2017-09-24T06:24:16.601Z,56.30
2017-09-24T06:26:44.152Z,64.15
2017-09-24T06:29:11.731Z,65.87
2017-09-24T06:31:39.264Z,66.25
2017-09-24T06:34:06.856Z,66.72
2017-09-24T06:36:34.480Z,68.18
2017-09-24T06:39:02.053Z,68.95
2017-09-24T06:41:29.595Z,58.67
2017-09-24T06:43:58.125Z,57.03
2017-09-24T06:46:25.938Z,58.85
2017-09-24T06:48:53.707Z,53.40
2017-09-24T06:51:21.300Z,66.80
2017-09-24T06:53:48.817Z,67.90
2017-09-24T06:56:17.122Z,70.12
2017-09-24T06:58:45.579Z,72.28
2017-09-24T07:01:13.873Z,62.90
2017-09-24T07:03:42.203Z,64.78
2017-09-24T07:06:09.721Z,66.00
2017-09-24T07:08:37.250Z,66.82
2017-09-24T07:11:04.765Z,68.37
2017-09-24T07:13:32.292Z,66.47
2017-09-24T07:16:00.570Z,62.00
2017-09-24T07:18:28.104Z,67.37
2017-09-24T07:20:55.604Z,59.33
2017-09-24T07:23:23.119Z,62.60
2017-09-24T07:25:50.648Z,61.10
2017-09-24T07:28:18.196Z,63.10
2017-09-24T07:30:45.724Z,59.13
2017-09-24T07:33:14.042Z,66.17
2017-09-24T07:35:41.622Z,59.53
2017-09-24T07:38:09.154Z,58.30
2017-09-24T07:40:36.701Z,62.33
2017-09-24T07:43:04.228Z,66.33
2017-09-24T07:45:32.513Z,66.13
2017-09-24T07:48:00.828Z,64.97
2017-09-24T07:50:28.328Z,67.40
2017-09-24T07:52:55.857Z,56.70
2017-09-24T07:55:23.480Z,66.97
2017-09-24T07:57:51.025Z,63.60
2017-09-24T08:00:18.552Z,63.80
2017-09-24T08:02:46.056Z,59.73
2017-09-24T08:05:13.593Z,63.53
2017-09-24T08:07:41.122Z,57.37
2017-09-24T08:10:08.644Z,60.37
2017-09-24T08:12:36.920Z,60.83
2017-09-24T08:15:05.238Z,59.57
2017-09-24T08:17:32.811Z,55.73
2017-09-24T08:20:00.336Z,55.00
2017-09-24T08:22:27.893Z,55.60
2017-09-24T08:24:55.650Z,56.77
2017-09-24T08:27:23.221Z,56.37
2017-09-24T08:29:50.772Z,51.70
2017-09-24T08:32:18.316Z,60.60
2017-09-24T08:34:46.589Z,55.37
2017-09-24T08:37:14.093Z,46.57
2017-09-24T08:39:41.629Z,52.80
2017-09-24T08:42:09.161Z,50.57
2017-09-24T08:44:36.825Z,47.47
2017-09-24T08:47:04.354Z,44.53
2017-09-24T08:49:31.887Z,48.87
2017-09-24T08:51:59.687Z,52.13
2017-09-24T08:54:27.214Z,50.13
2017-09-24T08:56:54.733Z,43.67
2017-09-24T08:59:22.247Z,44.93
2017-09-24T09:01:49.772Z,45.20
2017-09-24T09:04:18.040Z,45.23
2017-09-24T09:06:46.336Z,44.57
2017-09-24T09:09:13.850Z,48.57
2017-09-24T09:11:41.357Z,45.10
2017-09-24T09:14:08.902Z,46.80
2017-09-24T09:16:37.172Z,44.03
2017-09-24T09:19:04.710Z,44.80
2017-09-24T09:21:43.942Z,48.50
2017-09-24T09:24:11.474Z,46.53
2017-09-24T09:26:38.992Z,38.43
2017-09-24T09:29:07.272Z,42.93
2017-09-24T09:31:35.569Z,36.20
2017-09-24T09:34:14.885Z,36.70
2017-09-24T09:36:43.184Z,37.97
2017-09-24T09:39:10.727Z,33.60
2017-09-24T09:41:39.021Z,40.50
2017-09-24T09:44:06.554Z,45.70
2017-09-24T09:46:46.537Z,36.73
2017-09-24T09:49:14.053Z,39.83
2017-09-24T09:51:41.595Z,33.00
2017-09-24T09:54:09.125Z,34.73
2017-09-24T09:56:36.645Z,39.00
2017-09-24T09:59:04.941Z,32.57
2017-09-24T10:01:32.450Z,39.70
2017-09-24T10:03:59.985Z,37.73
2017-09-24T10:09:51.236Z,31.77
2017-09-24T10:12:18.753Z,36.97
2017-09-24T10:14:46.300Z,35.57
2017-09-24T10:17:13.820Z,39.17
2017-09-24T10:19:42.105Z,34.20
2017-09-24T10:22:10.405Z,31.90
2017-09-24T10:24:37.908Z,36.80
2017-09-24T10:27:05.458Z,33.23
2017-09-24T10:29:32.968Z,32.17
2017-09-24T10:32:10.535Z,33.20
2017-09-24T10:34:38.040Z,34.43
2017-09-24T10:37:05.571Z,33.60
2017-09-24T10:39:33.108Z,30.00
2017-09-24T10:42:00.631Z,33.60
2017-09-24T10:44:28.176Z,31.03
2017-09-24T10:46:55.686Z,32.57
2017-09-24T10:49:23.991Z,34.30
2017-09-24T10:51:51.506Z,30.03
2017-09-24T10:54:20.943Z,26.70
2017-09-24T10:56:48.485Z,29.07
2017-09-24T10:59:16.760Z,32.50
2017-09-24T11:01:45.066Z,28.17
2017-09-24T11:04:12.597Z,31.43
2017-09-24T11:06:40.892Z,25.07
2017-09-24T11:09:08.389Z,22.73
2017-09-24T11:11:35.889Z,26.50
2017-09-24T11:14:04.185Z,21.40
2017-09-24T11:16:31.706Z,26.70
2017-09-24T11:18:59.235Z,19.77
2017-09-24T11:21:26.749Z,24.50
2017-09-24T11:23:54.293Z,20.93
2017-09-24T11:26:21.804Z,22.70
2017-09-24T11:28:49.308Z,22.87
2017-09-24T11:31:16.841Z,24.60
2017-09-24T11:33:44.362Z,24.87
2017-09-24T11:36:11.880Z,22.80
2017-09-24T11:38:40.153Z,19.00
2017-09-24T11:41:07.693Z,22.43
2017-09-24T11:43:35.210Z,26.07
2017-09-24T11:46:02.731Z,20.57
2017-09-24T11:48:31.028Z,25.47
2017-09-24T11:50:58.544Z,19.60
2017-09-24T11:53:26.087Z,25.10
2017-09-24T11:55:53.602Z,19.03
2017-09-24T11:58:21.128Z,26.57
2017-09-24T12:00:56.885Z,19.17
2017-09-24T12:03:24.433Z,20.70
2017-09-24T12:05:58.186Z,20.90
2017-09-24T12:08:25.716Z,16.00
2017-09-24T12:10:53.235Z,16.33
2017-09-24T12:13:25.302Z,16.60
2017-09-24T12:15:52.825Z,17.80
2017-09-24T12:18:20.341Z,21.33
2017-09-24T12:20:47.877Z,20.37
2017-09-24T12:23:16.421Z,16.47
2017-09-24T12:25:44.584Z,17.43
2017-09-24T12:28:12.128Z,18.77
2017-09-24T12:30:40.451Z,19.60
2017-09-24T12:33:07.972Z,17.10
2017-09-24T12:35:36.261Z,16.40
2017-09-24T12:38:03.807Z,15.83
2017-09-24T12:40:31.336Z,17.10
2017-09-24T12:43:07.285Z,13.63
2017-09-24T12:45:34.793Z,20.60
2017-09-24T12:48:10.524Z,15.33
2017-09-24T12:50:38.073Z,17.10
2017-09-24T12:53:15.794Z,11.83
2017-09-24T12:55:43.332Z,11.97
2017-09-24T12:58:11.655Z,13.37
2017-09-24T13:00:39.180Z,12.30
2017-09-24T13:03:07.475Z,14.70
2017-09-24T13:05:35.015Z,13.00
2017-09-24T13:08:02.545Z,15.40
2017-09-24T13:10:30.100Z,11.00
2017-09-24T13:12:57.669Z,15.63
2017-09-24T13:15:25.429Z,12.50
2017-09-24T13:17:52.967Z,11.93
2017-09-24T13:20:20.473Z,14.20
2017-09-24T13:22:48.784Z,12.10
2017-09-24T13:25:16.317Z,14.77
2017-09-24T13:27:43.873Z,13.77
2017-09-24T13:30:11.381Z,19.40
2017-09-24T13:32:38.923Z,16.10
2017-09-24T13:35:06.459Z,14.17
2017-09-24T13:37:33.972Z,15.20
2017-09-24T13:40:01.515Z,13.80
2017-09-24T13:42:29.063Z,13.10
2017-09-24T13:44:56.587Z,12.77
2017-09-24T13:47:24.101Z,15.63
2017-09-24T13:49:51.617Z,15.30
2017-09-24T13:52:19.171Z,17.37
2017-09-24T13:54:46.690Z,15.73
2017-09-24T13:57:14.223Z,16.43
2017-09-24T13:59:41.732Z,19.53
2017-09-24T14:02:10.044Z,20.17
2017-09-24T14:04:37.566Z,19.77
2017-09-24T14:07:05.880Z,22.40
2017-09-24T14:09:33.407Z,20.00
2017-09-24T14:12:01.291Z,21.37
2017-09-24T14:14:28.863Z,24.17
2017-09-24T14:16:56.386Z,23.53
2017-09-24T14:19:23.929Z,20.13
2017-09-24T14:21:52.222Z,23.20
2017-09-24T14:24:20.557Z,24.40
2017-09-24T14:26:48.117Z,19.07
2017-09-24T14:29:15.665Z,24.73
2017-09-24T14:31:43.405Z,25.03
2017-09-24T14:34:10.968Z,22.20
2017-09-24T14:36:38.539Z,22.27
2017-09-24T14:39:06.095Z,21.13
2017-09-24T14:41:33.659Z,19.70
2017-09-24T14:44:01.255Z,15.30
2017-09-24T14:46:28.804Z,22.40
2017-09-24T14:48:56.333Z,25.17
2017-09-24T14:51:23.902Z,18.90
2017-09-24T14:53:52.369Z,19.40
2017-09-24T14:56:19.947Z,18.40
2017-09-24T14:58:47.510Z,18.93
2017-09-24T15:01:15.069Z,16.60
2017-09-24T15:03:42.654Z,19.53
2017-09-24T15:06:10.986Z,17.50
2017-09-24T15:08:38.550Z,18.90
2017-09-24T15:11:06.135Z,18.37
2017-09-24T15:13:33.703Z,17.00
2017-09-24T15:16:01.271Z,20.50
2017-09-24T15:18:29.600Z,17.13
2017-09-24T15:20:57.203Z,17.83
2017-09-24T15:23:25.489Z,20.90
2017-09-24T15:25:53.793Z,20.60
2017-09-24T15:28:21.324Z,21.57
2017-09-24T15:30:49.624Z,18.40
2017-09-24T15:33:17.147Z,19.43
2017-09-24T15:35:44.691Z,16.50
2017-09-24T15:38:12.193Z,16.60
2017-09-24T15:40:39.709Z,18.60
2017-09-24T15:43:07.328Z,16.70
2017-09-24T15:45:34.843Z,16.27
2017-09-24T15:48:02.421Z,15.47
2017-09-24T15:50:31.007Z,14.10
2017-09-24T15:52:59.011Z,14.57
2017-09-24T15:55:26.813Z,20.73
2017-09-24T15:57:54.370Z,17.17
2017-09-24T16:00:21.890Z,18.17
2017-09-24T16:02:49.416Z,15.97
2017-09-24T16:05:17.702Z,14.80
2017-09-24T16:07:45.214Z,13.67
2017-09-24T16:10:12.756Z,16.30
2017-09-24T16:12:40.282Z,12.60
2017-09-24T16:15:07.834Z,15.87
2017-09-24T16:17:35.578Z,16.83
2017-09-24T16:20:03.861Z,14.60
2017-09-24T16:22:31.410Z,19.07
2017-09-24T16:24:58.948Z,17.73
2017-09-24T16:27:26.493Z,13.30
2017-09-24T16:29:54.094Z,18.37
2017-09-24T16:32:21.705Z,17.47
2017-09-24T16:34:59.538Z,14.80
2017-09-24T16:37:27.185Z,17.13
2017-09-24T16:39:54.847Z,16.90
2017-09-24T16:42:22.401Z,14.80
2017-09-24T16:44:50.011Z,13.47
2017-09-24T16:47:17.582Z,14.33
2017-09-24T16:49:53.360Z,17.13
2017-09-24T16:52:22.623Z,16.00
2017-09-24T16:54:50.375Z,15.03
2017-09-24T16:57:17.892Z,15.27
2017-09-24T16:59:45.396Z,14.47
2017-09-24T17:02:12.933Z,13.30
2017-09-24T17:04:40.730Z,15.30
2017-09-24T17:07:08.321Z,12.63
2017-09-24T17:09:35.857Z,13.13
2017-09-24T17:12:03.483Z,16.57
2017-09-24T17:14:31.009Z,18.23
2017-09-24T17:17:07.054Z,17.20
2017-09-24T17:19:34.719Z,17.30
2017-09-24T17:22:02.275Z,18.13
2017-09-24T17:24:29.832Z,22.10
2017-09-24T17:26:57.370Z,17.60
2017-09-24T17:29:25.702Z,17.37
2017-09-24T17:31:53.295Z,15.30
2017-09-24T17:34:20.894Z,17.43
2017-09-24T17:36:48.533Z,15.63
2017-09-24T17:39:16.126Z,16.87
2017-09-24T17:41:43.695Z,17.03
2017-09-24T17:44:12.105Z,15.47
2017-09-24T17:46:40.466Z,15.23
2017-09-24T17:49:11.559Z,11.60
2017-09-24T17:54:26.628Z,12.53
2017-09-24T17:57:07.412Z,18.10
2017-09-24T17:59:34.921Z,16.33
2017-09-24T18:02:02.491Z,10.93
2017-09-24T18:04:30.770Z,7.23
2017-09-24T18:06:59.040Z,4.17
2017-09-24T18:09:26.562Z,5.70
2017-09-24T18:11:54.070Z,3.83
2017-09-24T18:14:22.854Z,6.13
2017-09-24T18:16:51.130Z,3.90
2017-09-24T18:19:18.657Z,5.63
2017-09-24T18:21:46.156Z,5.20
2017-09-24T18:24:13.654Z,4.93
2017-09-24T18:26:41.168Z,6.07
2017-09-24T18:29:08.672Z,6.00
2017-09-24T18:31:36.202Z,6.73
2017-09-24T18:34:04.465Z,6.50
2017-09-24T18:36:32.005Z,5.00
2017-09-24T18:38:59.506Z,5.00
2017-09-24T18:41:27.051Z,4.87
2017-09-24T18:43:55.326Z,9.03
2017-09-24T18:46:22.825Z,5.47
2017-09-24T18:48:50.346Z,5.30
2017-09-24T18:51:18.616Z,5.77
2017-09-24T18:53:46.133Z,9.07
2017-09-24T18:56:13.630Z,7.03
2017-09-24T18:58:41.164Z,10.30
2017-09-24T19:01:08.848Z,11.30
2017-09-24T19:03:36.370Z,10.10
2017-09-24T19:06:03.917Z,8.65
2017-09-24T19:08:31.438Z,11.57
2017-09-24T19:10:59.775Z,11.02
2017-09-24T19:13:27.347Z,11.20
2017-09-24T19:15:54.908Z,9.93
2017-09-24T19:18:22.436Z,13.67
2017-09-24T19:20:49.956Z,12.00
2017-09-24T19:23:17.519Z,14.37
2017-09-24T19:25:45.850Z,14.60
2017-09-24T19:28:13.388Z,14.97
2017-09-24T19:30:40.932Z,19.87
2017-09-24T19:33:09.280Z,16.62
2017-09-24T19:35:36.898Z,19.40
2017-09-24T19:38:04.469Z,21.25
2017-09-24T19:40:32.032Z,17.60
2017-09-24T19:42:59.562Z,19.30
2017-09-24T19:45:27.895Z,22.10
2017-09-24T19:47:55.428Z,23.27
2017-09-24T19:50:22.997Z,23.02
2017-09-24T19:52:50.539Z,22.83
2017-09-24T19:55:18.103Z,25.07
2017-09-24T19:57:45.627Z,21.60
2017-09-24T20:00:13.931Z,21.70
2017-09-24T20:02:41.461Z,20.93
2017-09-24T20:05:09.734Z,18.42
2017-09-24T20:07:37.446Z,20.93
2017-09-24T20:10:04.994Z,21.05
2017-09-24T20:12:32.544Z,21.47
2017-09-24T20:15:00.076Z,20.70
2017-09-24T20:17:28.373Z,19.40
2017-09-24T20:19:55.982Z,27.95
2017-09-24T20:22:23.502Z,21.70
2017-09-24T20:24:51.036Z,25.77
2017-09-24T20:27:18.553Z,21.12
2017-09-24T20:29:46.061Z,24.45
2017-09-24T20:32:13.759Z,20.08
2017-09-24T20:34:41.306Z,23.10
2017-09-24T20:37:08.852Z,33.38
2017-09-24T20:39:37.262Z,33.78
2017-09-24T20:42:04.796Z,32.72
2017-09-24T20:44:33.806Z,23.15
2017-09-24T20:47:01.382Z,21.50
2017-09-24T20:49:28.950Z,21.23
2017-09-24T20:51:56.489Z,21.42
2017-09-24T20:54:23.996Z,25.20
2017-09-24T20:56:51.517Z,23.85
2017-09-24T20:59:19.082Z,24.73
2017-09-24T21:01:46.599Z,23.08
2017-09-24T21:04:14.905Z,24.37
2017-09-24T21:06:42.455Z,24.87
2017-09-24T21:09:10.025Z,22.87
2017-09-24T21:11:37.547Z,21.55
2017-09-24T21:14:05.083Z,26.98
2017-09-24T21:16:32.633Z,22.45
2017-09-24T21:19:00.175Z,25.90
2017-09-24T21:21:27.725Z,22.48
2017-09-24T21:23:55.326Z,22.23
2017-09-24T21:26:22.842Z,26.58
2017-09-24T21:28:50.406Z,25.30
2017-09-24T21:31:17.937Z,21.75
2017-09-24T21:33:45.505Z,22.73
2017-09-24T21:36:13.797Z,19.23
2017-09-24T21:38:42.099Z,24.17
2017-09-24T21:41:09.614Z,19.23
2017-09-24T21:43:37.899Z,19.87
2017-09-24T21:46:06.220Z,30.35
2017-09-24T21:48:33.766Z,25.95
2017-09-24T21:51:01.334Z,21.83
2017-09-24T21:53:28.896Z,19.23
2017-09-24T21:55:56.475Z,22.25
2017-09-24T21:58:24.019Z,22.73
2017-09-24T22:00:51.575Z,18.60
2017-09-24T22:03:19.122Z,20.92
2017-09-24T22:05:46.693Z,20.48
2017-09-24T22:08:14.231Z,19.62
2017-09-24T22:10:41.793Z,17.15
2017-09-24T22:13:10.094Z,22.77
2017-09-24T22:15:37.650Z,20.30
2017-09-24T22:18:05.234Z,20.27
2017-09-24T22:20:32.797Z,20.33
2017-09-24T22:23:00.352Z,21.37
2017-09-24T22:25:27.903Z,20.90
2017-09-24T22:27:55.441Z,19.58
2017-09-24T22:30:23.018Z,23.75
2017-09-24T22:32:50.561Z,18.92
2017-09-24T22:35:18.096Z,21.48
2017-09-24T22:37:46.416Z,20.58
2017-09-24T22:40:13.940Z,22.85
2017-09-24T22:42:42.252Z,20.35
2017-09-24T22:45:09.787Z,20.73
2017-09-24T22:47:37.356Z,23.50
2017-09-24T22:50:04.894Z,18.52
2017-09-24T22:52:33.225Z,22.23
2017-09-24T22:55:00.790Z,21.33
2017-09-24T22:57:28.347Z,22.08
2017-09-24T22:59:55.885Z,18.87
2017-09-24T23:02:23.447Z,20.67
2017-09-24T23:04:50.981Z,23.10
2017-09-24T23:07:19.326Z,22.08
2017-09-24T23:09:46.841Z,19.60
2017-09-24T23:12:14.388Z,22.48
2017-09-24T23:14:42.688Z,21.15
2017-09-24T23:17:10.244Z,22.77
2017-09-24T23:19:37.777Z,24.87
2017-09-24T23:22:06.094Z,19.50
2017-09-24T23:24:33.624Z,21.83
2017-09-24T23:27:02.017Z,20.62
2017-09-24T23:29:29.555Z,22.45
2017-09-24T23:31:57.877Z,22.87
2017-09-24T23:34:25.430Z,23.75
2017-09-24T23:36:52.952Z,21.35
2017-09-24T23:39:21.287Z,22.75
2017-09-24T23:41:48.829Z,20.25
2017-09-24T23:44:16.410Z,21.77
2017-09-24T23:46:43.924Z,23.07
2017-09-24T23:49:11.508Z,25.05
2017-09-24T23:51:39.041Z,19.95
2017-09-24T23:54:07.364Z,22.52
2017-09-24T23:56:34.914Z,26.90
2017-09-24T23:59:02.487Z,22.05
